PWSweather.com
Personal Weather Stations
Station Observations
KMILAPEE3
Lapeer Michigan, Lapeer, MI 48446

Lapeer MichiganLapeer, MI 48446

Lat: 43.057, Lon: -83.362

Elevation: 897

Station Type: Oregon Scientific WMR-968

Latest ConditionsUpdated 9:25:10 PM EDT Tuesday, Oct 21, 2014
Currently Today's Max Today's Min Today's Average
Temperature 43.0°F6.1°C 48.7°F9.3°C 42.8°F6.0°C 45.5°F7.5°C
Dew Point 31.8°F-0.1°C 43.8°F6.6°C 31.6°F-0.2°C 39.1°F3.9°C
Winds 9.3 mph N15.0 kmh N 16.5 mph N26.6 kmh N - 9.0 mph 14.5 kmh
Wind Gusts 21.2 mph34.1 kmh 34.5 mph55.5 kmh - -
Humidity 64% 90% 64% 79%
Pressure 30.21 in1023.0 mb 30.21 in1023.0 mb 29.88 in1011.9 mb -
Hour Temp Dew Point Humidity Winds Wind Gusts Pressure Precip Precip Rate Daily Precip Total
09:25 PM 43.0°F6.1°C 31.8°F-0.1°C 64% 9.3 mph N15.0 kmh N 21.2 mph34.1 kmh 30.21 in1023.0 mb 0.00 in0.0 mm 0.00 in/hr0.0 mm/hr 0.00 in0.0 mm
09:20 PM 43.0°F6.1°C 31.8°F-0.1°C 64% 13.0 mph N20.9 kmh N 21.2 mph34.1 kmh 30.21 in1023.0 mb 0.00 in0.0 mm 0.00 in/hr0.0 mm/hr 0.00 in0.0 mm
09:15 PM 43.0°F6.1°C 32.3°F0.2°C 65% 8.8 mph N14.2 kmh N 18.1 mph29.1 kmh 30.21 in1023.0 mb 0.00 in0.0 mm 0.00 in/hr0.0 mm/hr 0.00 in0.0 mm
09:10 PM 42.8°F6.0°C 32.1°F0.1°C 65% 10.5 mph N16.9 kmh N 18.1 mph29.1 kmh 30.21 in1023.0 mb 0.00 in0.0 mm 0.00 in/hr0.0 mm/hr 0.00 in0.0 mm
09:04 PM 42.8°F6.0°C 31.6°F-0.2°C 64% 8.8 mph N14.2 kmh N 18.1 mph29.1 kmh 30.21 in1023.0 mb 0.00 in0.0 mm 0.00 in/hr0.0 mm/hr 0.00 in0.0 mm
08:59 PM 42.8°F6.0°C 32.1°F0.1°C 65% 7.0 mph N11.3 kmh N 18.1 mph29.1 kmh 30.21 in1023.0 mb 0.00 in0.0 mm 0.00 in/hr0.0 mm/hr 0.00 in0.0 mm
08:54 PM 42.8°F6.0°C 32.0°F0.0°C 65% 5.3 mph N8.5 kmh N 17.6 mph28.3 kmh 30.21 in1023.0 mb 0.00 in0.0 mm 0.00 in/hr0.0 mm/hr 0.00 in0.0 mm
08:49 PM 42.8°F6.0°C 32.0°F0.0°C 65% 7.4 mph N11.9 kmh N 17.6 mph28.3 kmh 30.21 in1023.0 mb 0.00 in0.0 mm 0.00 in/hr0.0 mm/hr 0.00 in0.0 mm
08:43 PM 42.8°F6.0°C 32.0°F0.0°C 65% 7.1 mph N11.4 kmh N 17.6 mph28.3 kmh 30.21 in1023.0 mb 0.00 in0.0 mm 0.00 in/hr0.0 mm/hr 0.00 in0.0 mm
08:38 PM 43.0°F6.1°C 32.2°F0.1°C 65% 7.7 mph N12.4 kmh N 17.6 mph28.3 kmh 30.21 in1023.0 mb 0.00 in0.0 mm 0.00 in/hr0.0 mm/hr 0.00 in0.0 mm
08:32 PM 43.0°F6.1°C 32.2°F0.1°C 65% 9.8 mph N15.8 kmh N 16.4 mph26.4 kmh 30.21 in1023.0 mb 0.00 in0.0 mm 0.00 in/hr0.0 mm/hr 0.00 in0.0 mm
08:27 PM 43.0°F6.1°C 32.2°F0.1°C 65% 11.1 mph N17.9 kmh N 21.2 mph34.1 kmh 30.21 in1023.0 mb 0.00 in0.0 mm 0.00 in/hr0.0 mm/hr 0.00 in0.0 mm
08:22 PM 43.0°F6.1°C 32.2°F0.1°C 65% 13.8 mph N22.2 kmh N 21.2 mph34.1 kmh 30.21 in1023.0 mb 0.00 in0.0 mm 0.00 in/hr0.0 mm/hr 0.00 in0.0 mm
08:17 PM 43.0°F6.1°C 32.2°F0.1°C 65% 7.5 mph N12.1 kmh N 17.6 mph28.3 kmh 30.21 in1023.0 mb 0.00 in0.0 mm 0.00 in/hr0.0 mm/hr 0.00 in0.0 mm
08:12 PM 43.0°F6.1°C 32.2°F0.1°C 65% 7.6 mph N12.2 kmh N 17.6 mph28.3 kmh 30.21 in1023.0 mb 0.00 in0.0 mm 0.00 in/hr0.0 mm/hr 0.00 in0.0 mm
08:07 PM 43.0°F6.1°C 32.2°F0.1°C 65% 11.3 mph N18.2 kmh N 17.6 mph28.3 kmh 30.21 in1023.0 mb 0.00 in0.0 mm 0.00 in/hr0.0 mm/hr 0.00 in0.0 mm
08:02 PM 43.0°F6.1°C 32.2°F0.1°C 65% 10.3 mph N16.6 kmh N 23.1 mph37.2 kmh 30.21 in1023.0 mb 0.00 in0.0 mm 0.00 in/hr0.0 mm/hr 0.00 in0.0 mm
07:57 PM 43.0°F6.1°C 32.1°F0.1°C 65% 8.8 mph N14.2 kmh N 20.6 mph33.2 kmh 30.18 in1022.0 mb 0.00 in0.0 mm 0.00 in/hr0.0 mm/hr 0.00 in0.0 mm
07:52 PM 43.0°F6.1°C 32.1°F0.1°C 65% 10.4 mph N16.7 kmh N 23.1 mph37.2 kmh 30.18 in1022.0 mb 0.00 in0.0 mm 0.00 in/hr0.0 mm/hr 0.00 in0.0 mm
07:47 PM 43.0°F6.1°C 32.1°F0.1°C 65% 13.3 mph N21.4 kmh N 23.1 mph37.2 kmh 30.18 in1022.0 mb 0.00 in0.0 mm 0.00 in/hr0.0 mm/hr 0.00 in0.0 mm
07:41 PM 43.0°F6.1°C 32.1°F0.1°C 65% 7.1 mph N11.4 kmh N 21.2 mph34.1 kmh 30.18 in1022.0 mb 0.00 in0.0 mm 0.00 in/hr0.0 mm/hr 0.00 in0.0 mm
07:36 PM 43.0°F6.1°C 32.1°F0.1°C 65% 12.8 mph N20.6 kmh N 21.2 mph34.1 kmh 30.18 in1022.0 mb 0.00 in0.0 mm 0.00 in/hr0.0 mm/hr 0.00 in0.0 mm
07:31 PM 43.0°F6.1°C 32.1°F0.1°C 65% 12.7 mph N20.4 kmh N 19.9 mph32.0 kmh 30.18 in1022.0 mb 0.00 in0.0 mm 0.00 in/hr0.0 mm/hr 0.00 in0.0 mm
07:26 PM 43.0°F6.1°C 32.1°F0.1°C 65% 11.7 mph N18.8 kmh N 18.7 mph30.1 kmh 30.18 in1022.0 mb 0.00 in0.0 mm 0.00 in/hr0.0 mm/hr 0.00 in0.0 mm
07:21 PM 43.0°F6.1°C 32.1°F0.1°C 65% 11.3 mph N18.2 kmh N 20.6 mph33.2 kmh 30.18 in1022.0 mb 0.00 in0.0 mm 0.00 in/hr0.0 mm/hr 0.00 in0.0 mm
07:16 PM 43.0°F6.1°C 32.1°F0.1°C 65% 10.8 mph N17.4 kmh N 20.6 mph33.2 kmh 30.18 in1022.0 mb 0.00 in0.0 mm 0.00 in/hr0.0 mm/hr 0.00 in0.0 mm
07:10 PM 43.0°F6.1°C 32.1°F0.1°C 65% 10.5 mph N16.9 kmh N 18.7 mph30.1 kmh 30.18 in1022.0 mb 0.00 in0.0 mm 0.00 in/hr0.0 mm/hr 0.00 in0.0 mm
07:05 PM 43.2°F6.2°C 32.2°F0.1°C 65% 13.6 mph N21.9 kmh N 23.4 mph37.7 kmh 30.18 in1022.0 mb 0.00 in0.0 mm 0.00 in/hr0.0 mm/hr 0.00 in0.0 mm
07:00 PM 43.2°F6.2°C 32.2°F0.1°C 65% 8.6 mph N13.8 kmh N 23.4 mph37.7 kmh 30.18 in1022.0 mb 0.00 in0.0 mm 0.00 in/hr0.0 mm/hr 0.00 in0.0 mm
06:55 PM 43.2°F6.2°C 32.7°F0.4°C 66% 10.3 mph N16.6 kmh N 23.4 mph37.7 kmh 30.18 in1022.0 mb 0.00 in0.0 mm 0.00 in/hr0.0 mm/hr 0.00 in0.0 mm
06:50 PM 43.2°F6.2°C 32.7°F0.4°C 66% 9.3 mph N15.0 kmh N 19.9 mph32.0 kmh 30.18 in1022.0 mb 0.00 in0.0 mm 0.00 in/hr0.0 mm/hr 0.00 in0.0 mm
06:45 PM 43.2°F6.2°C 32.7°F0.4°C 66% 10.5 mph N16.9 kmh N 19.9 mph32.0 kmh 30.18 in1022.0 mb 0.00 in0.0 mm 0.00 in/hr0.0 mm/hr 0.00 in0.0 mm
06:40 PM 43.3°F6.3°C 32.7°F0.4°C 66% 9.5 mph N15.3 kmh N 17.6 mph28.3 kmh 30.18 in1022.0 mb 0.00 in0.0 mm 0.00 in/hr0.0 mm/hr 0.00 in0.0 mm
06:35 PM 43.3°F6.3°C 32.7°F0.4°C 66% 8.9 mph N14.3 kmh N 18.7 mph30.1 kmh 30.18 in1022.0 mb 0.00 in0.0 mm 0.00 in/hr0.0 mm/hr 0.00 in0.0 mm
06:29 PM 43.3°F6.3°C 32.7°F0.4°C 66% 10.7 mph N17.2 kmh N 20.6 mph33.2 kmh 30.18 in1022.0 mb 0.00 in0.0 mm 0.00 in/hr0.0 mm/hr 0.00 in0.0 mm
06:24 PM 43.3°F6.3°C 32.7°F0.4°C 66% 10.2 mph N16.4 kmh N 20.6 mph33.2 kmh 30.15 in1021.0 mb 0.00 in0.0 mm 0.00 in/hr0.0 mm/hr 0.00 in0.0 mm
06:19 PM 43.3°F6.3°C 32.7°F0.4°C 66% 11.6 mph N18.7 kmh N 23.9 mph38.5 kmh 30.15 in1021.0 mb 0.00 in0.0 mm 0.00 in/hr0.0 mm/hr 0.00 in0.0 mm
06:14 PM 43.5°F6.4°C 32.9°F0.5°C 66% 9.8 mph N15.8 kmh N 23.9 mph38.5 kmh 30.15 in1021.0 mb 0.00 in0.0 mm 0.00 in/hr0.0 mm/hr 0.00 in0.0 mm
06:09 PM 43.5°F6.4°C 32.9°F0.5°C 66% 11.7 mph N18.8 kmh N 34.5 mph55.5 kmh 30.15 in1021.0 mb 0.00 in0.0 mm 0.00 in/hr0.0 mm/hr 0.00 in0.0 mm
06:04 PM 43.5°F6.4°C 33.0°F0.6°C 66% 14.3 mph N23.0 kmh N 34.5 mph55.5 kmh 30.15 in1021.0 mb 0.00 in0.0 mm 0.00 in/hr0.0 mm/hr 0.00 in0.0 mm
05:59 PM 43.5°F6.4°C 33.0°F0.6°C 66% 8.6 mph NNW13.8 kmh NNW 23.9 mph38.5 kmh 30.15 in1021.0 mb 0.00 in0.0 mm 0.00 in/hr0.0 mm/hr 0.00 in0.0 mm
05:54 PM 43.5°F6.4°C 33.0°F0.6°C 66% 12.0 mph N19.3 kmh N 27.6 mph44.4 kmh 30.15 in1021.0 mb 0.00 in0.0 mm 0.00 in/hr0.0 mm/hr 0.00 in0.0 mm
05:47 PM 43.5°F6.4°C 33.4°F0.8°C 67% 12.0 mph N19.3 kmh N 27.6 mph44.4 kmh 30.15 in1021.0 mb 0.00 in0.0 mm 0.00 in/hr0.0 mm/hr 0.00 in0.0 mm
05:42 PM 43.5°F6.4°C 33.4°F0.8°C 67% 13.9 mph N22.4 kmh N 23.4 mph37.7 kmh 30.15 in1021.0 mb 0.00 in0.0 mm 0.00 in/hr0.0 mm/hr 0.00 in0.0 mm
05:37 PM 43.5°F6.4°C 33.4°F0.8°C 67% 12.9 mph NNE20.8 kmh NNE 27.1 mph43.6 kmh 30.15 in1021.0 mb 0.00 in0.0 mm 0.00 in/hr0.0 mm/hr 0.00 in0.0 mm
05:32 PM 43.5°F6.4°C 33.5°F0.8°C 67% 15.8 mph N25.4 kmh N 27.1 mph43.6 kmh 30.15 in1021.0 mb 0.00 in0.0 mm 0.00 in/hr0.0 mm/hr 0.00 in0.0 mm
05:27 PM 43.5°F6.4°C 33.9°F1.1°C 69% 12.1 mph N19.5 kmh N 24.6 mph39.6 kmh 30.15 in1021.0 mb 0.00 in0.0 mm 0.00 in/hr0.0 mm/hr 0.00 in0.0 mm
05:22 PM 43.5°F6.4°C 33.9°F1.1°C 69% 11.2 mph N18.0 kmh N 24.6 mph39.6 kmh 30.15 in1021.0 mb 0.00 in0.0 mm 0.00 in/hr0.0 mm/hr 0.00 in0.0 mm
05:16 PM 43.5°F6.4°C 33.9°F1.1°C 69% 11.0 mph N17.7 kmh N 20.6 mph33.2 kmh 30.15 in1021.0 mb 0.00 in0.0 mm 0.00 in/hr0.0 mm/hr 0.00 in0.0 mm
05:11 PM 43.5°F6.4°C 33.9°F1.1°C 69% 7.8 mph 12.6 kmh 20.6 mph33.2 kmh 30.15 in1021.0 mb 0.00 in0.0 mm 0.00 in/hr0.0 mm/hr 0.00 in0.0 mm
05:06 PM 43.5°F6.4°C 33.9°F1.1°C 69% 10.4 mph N16.7 kmh N 20.6 mph33.2 kmh 30.15 in1021.0 mb 0.00 in0.0 mm 0.00 in/hr0.0 mm/hr 0.00 in0.0 mm
05:01 PM 43.5°F6.4°C 33.9°F1.1°C 69% 9.0 mph N14.5 kmh N 20.6 mph33.2 kmh 30.15 in1021.0 mb 0.00 in0.0 mm 0.00 in/hr0.0 mm/hr 0.00 in0.0 mm
04:56 PM 43.5°F6.4°C 34.0°F1.1°C 69% 11.0 mph N17.7 kmh N 21.2 mph34.1 kmh 30.15 in1021.0 mb 0.00 in0.0 mm 0.00 in/hr0.0 mm/hr 0.00 in0.0 mm
04:51 PM 43.5°F6.4°C 34.0°F1.1°C 69% 14.4 mph N23.2 kmh N 30.1 mph48.4 kmh 30.15 in1021.0 mb 0.00 in0.0 mm 0.00 in/hr0.0 mm/hr 0.00 in0.0 mm
04:45 PM 43.5°F6.4°C 34.0°F1.1°C 69% 12.7 mph N20.4 kmh N 30.1 mph48.4 kmh 30.15 in1021.0 mb 0.00 in0.0 mm 0.00 in/hr0.0 mm/hr 0.00 in0.0 mm
04:40 PM 43.7°F6.5°C 34.6°F1.4°C 70% 14.9 mph N24.0 kmh N 23.9 mph38.5 kmh 30.12 in1020.0 mb 0.00 in0.0 mm 0.00 in/hr0.0 mm/hr 0.00 in0.0 mm
04:34 PM 43.7°F6.5°C 34.6°F1.4°C 70% 13.6 mph N21.9 kmh N 20.6 mph33.2 kmh 30.12 in1020.0 mb 0.00 in0.0 mm 0.00 in/hr0.0 mm/hr 0.00 in0.0 mm
04:29 PM 43.7°F6.5°C 34.6°F1.4°C 70% 9.4 mph N15.1 kmh N 25.8 mph41.5 kmh 30.12 in1020.0 mb 0.00 in0.0 mm 0.00 in/hr0.0 mm/hr 0.00 in0.0 mm
04:24 PM 43.7°F6.5°C 34.2°F1.2°C 69% 13.7 mph N22.0 kmh N 32.6 mph52.5 kmh 30.12 in1020.0 mb 0.00 in0.0 mm 0.00 in/hr0.0 mm/hr 0.00 in0.0 mm
04:19 PM 43.9°F6.6°C 34.8°F1.6°C 70% 15.7 mph N25.3 kmh N 32.6 mph52.5 kmh 30.12 in1020.0 mb 0.00 in0.0 mm 0.00 in/hr0.0 mm/hr 0.00 in0.0 mm
04:13 PM 43.9°F6.6°C 34.8°F1.6°C 70% 10.5 mph 16.9 kmh 25.2 mph40.6 kmh 30.12 in1020.0 mb 0.00 in0.0 mm 0.00 in/hr0.0 mm/hr 0.00 in0.0 mm
04:08 PM 44.1°F6.7°C 35.0°F1.7°C 70% 13.3 mph N21.4 kmh N 25.2 mph40.6 kmh 30.12 in1020.0 mb 0.00 in0.0 mm 0.00 in/hr0.0 mm/hr 0.00 in0.0 mm
04:03 PM 44.1°F6.7°C 35.5°F1.9°C 71% 12.2 mph 19.6 kmh 23.9 mph38.5 kmh 30.12 in1020.0 mb 0.00 in0.0 mm 0.00 in/hr0.0 mm/hr 0.00 in0.0 mm
03:58 PM 44.1°F6.7°C 35.1°F1.7°C 70% 13.3 mph 21.4 kmh 20.6 mph33.2 kmh 30.12 in1020.0 mb 0.00 in0.0 mm 0.00 in/hr0.0 mm/hr 0.00 in0.0 mm
03:53 PM 44.2°F6.8°C 35.6°F2.0°C 71% 10.7 mph NNE17.2 kmh NNE 23.1 mph37.2 kmh 30.12 in1020.0 mb 0.00 in0.0 mm 0.00 in/hr0.0 mm/hr 0.00 in0.0 mm
03:48 PM 44.2°F6.8°C 35.6°F2.0°C 71% 16.0 mph N25.7 kmh N 23.1 mph37.2 kmh 30.12 in1020.0 mb 0.00 in0.0 mm 0.00 in/hr0.0 mm/hr 0.00 in0.0 mm
03:42 PM 44.2°F6.8°C 35.6°F2.0°C 71% 10.2 mph N16.4 kmh N 21.2 mph34.1 kmh 30.12 in1020.0 mb 0.00 in0.0 mm 0.00 in/hr0.0 mm/hr 0.00 in0.0 mm
03:37 PM 44.2°F6.8°C 35.2°F1.8°C 70% 11.4 mph N18.3 kmh N 27.1 mph43.6 kmh 30.12 in1020.0 mb 0.00 in0.0 mm 0.00 in/hr0.0 mm/hr 0.00 in0.0 mm
03:32 PM 44.4°F6.9°C 35.4°F1.9°C 70% 10.7 mph N17.2 kmh N 29.6 mph47.6 kmh 30.12 in1020.0 mb 0.00 in0.0 mm 0.00 in/hr0.0 mm/hr 0.00 in0.0 mm
03:27 PM 44.6°F7.0°C 36.0°F2.2°C 71% 16.2 mph N26.1 kmh N 29.6 mph47.6 kmh 30.12 in1020.0 mb 0.00 in0.0 mm 0.00 in/hr0.0 mm/hr 0.00 in0.0 mm
03:22 PM 44.6°F7.0°C 36.4°F2.4°C 73% 9.6 mph N15.4 kmh N 22.4 mph36.0 kmh 30.12 in1020.0 mb 0.00 in0.0 mm 0.00 in/hr0.0 mm/hr 0.00 in0.0 mm
03:17 PM 44.6°F7.0°C 36.8°F2.7°C 74% 11.4 mph NNW18.3 kmh NNW 22.4 mph36.0 kmh 30.12 in1020.0 mb 0.00 in0.0 mm 0.00 in/hr0.0 mm/hr 0.00 in0.0 mm
03:12 PM 44.6°F7.0°C 36.8°F2.7°C 74% 9.4 mph N15.1 kmh N 19.4 mph31.2 kmh 30.12 in1020.0 mb 0.00 in0.0 mm 0.00 in/hr0.0 mm/hr 0.00 in0.0 mm
03:07 PM 44.4°F6.9°C 37.0°F2.8°C 75% 7.3 mph NNW11.7 kmh NNW 18.1 mph29.1 kmh 30.12 in1020.0 mb 0.00 in0.0 mm 0.00 in/hr0.0 mm/hr 0.00 in0.0 mm
03:02 PM 44.2°F6.8°C 36.5°F2.5°C 74% 11.1 mph N17.9 kmh N 18.7 mph30.1 kmh 30.12 in1020.0 mb 0.00 in0.0 mm 0.00 in/hr0.0 mm/hr 0.00 in0.0 mm
02:57 PM 44.4°F6.9°C 37.0°F2.8°C 75% 12.6 mph N20.3 kmh N 21.2 mph34.1 kmh 30.12 in1020.0 mb 0.00 in0.0 mm 0.00 in/hr0.0 mm/hr 0.00 in0.0 mm
02:52 PM 44.4°F6.9°C 37.0°F2.8°C 75% 10.9 mph N17.5 kmh N 23.1 mph37.2 kmh 30.12 in1020.0 mb 0.00 in0.0 mm 0.00 in/hr0.0 mm/hr 0.00 in0.0 mm
02:47 PM 44.4°F6.9°C 37.1°F2.8°C 75% 9.9 mph N15.9 kmh N 23.1 mph37.2 kmh 30.12 in1020.0 mb 0.00 in0.0 mm 0.00 in/hr0.0 mm/hr 0.00 in0.0 mm
02:42 PM 44.2°F6.8°C 36.9°F2.7°C 75% 9.3 mph N15.0 kmh N 20.6 mph33.2 kmh 30.12 in1020.0 mb 0.00 in0.0 mm 0.00 in/hr0.0 mm/hr 0.00 in0.0 mm
02:37 PM 44.2°F6.8°C 36.9°F2.7°C 75% 12.3 mph N19.8 kmh N 20.6 mph33.2 kmh 30.12 in1020.0 mb 0.00 in0.0 mm 0.00 in/hr0.0 mm/hr 0.00 in0.0 mm
02:31 PM 44.2°F6.8°C 36.9°F2.7°C 75% 9.8 mph N15.8 kmh N 28.3 mph45.5 kmh 30.12 in1020.0 mb 0.00 in0.0 mm 0.00 in/hr0.0 mm/hr 0.00 in0.0 mm
02:26 PM 44.2°F6.8°C 36.9°F2.7°C 75% 15.2 mph N24.5 kmh N 28.3 mph45.5 kmh 30.12 in1020.0 mb 0.00 in0.0 mm 0.00 in/hr0.0 mm/hr 0.00 in0.0 mm
02:21 PM 44.4°F6.9°C 37.1°F2.8°C 75% 12.1 mph 19.5 kmh 21.2 mph34.1 kmh 30.12 in1020.0 mb 0.00 in0.0 mm 0.00 in/hr0.0 mm/hr 0.00 in0.0 mm
02:16 PM 44.4°F6.9°C 37.1°F2.8°C 75% 10.2 mph N16.4 kmh N 19.9 mph32.0 kmh 30.12 in1020.0 mb 0.00 in0.0 mm 0.00 in/hr0.0 mm/hr 0.00 in0.0 mm
02:11 PM 44.4°F6.9°C 37.1°F2.8°C 75% 11.2 mph NNW18.0 kmh NNW 19.9 mph32.0 kmh 30.12 in1020.0 mb 0.00 in0.0 mm 0.00 in/hr0.0 mm/hr 0.00 in0.0 mm
02:06 PM 44.6°F7.0°C 37.3°F2.9°C 75% 10.8 mph NNW17.4 kmh NNW 19.4 mph31.2 kmh 30.12 in1020.0 mb 0.00 in0.0 mm 0.00 in/hr0.0 mm/hr 0.00 in0.0 mm
01:59 PM 44.6°F7.0°C 36.9°F2.7°C 74% 13.5 mph N21.7 kmh N 19.4 mph31.2 kmh 30.09 in1019.0 mb 0.00 in0.0 mm 0.00 in/hr0.0 mm/hr 0.00 in0.0 mm
01:54 PM 44.6°F7.0°C 37.3°F2.9°C 75% 10.5 mph NNW16.9 kmh NNW 21.2 mph34.1 kmh 30.09 in1019.0 mb 0.00 in0.0 mm 0.00 in/hr0.0 mm/hr 0.00 in0.0 mm
01:49 PM 44.8°F7.1°C 37.1°F2.8°C 74% 13.2 mph N21.2 kmh N 21.2 mph34.1 kmh 30.09 in1019.0 mb 0.00 in0.0 mm 0.00 in/hr0.0 mm/hr 0.00 in0.0 mm
01:44 PM 44.8°F7.1°C 37.5°F3.1°C 75% 11.0 mph N17.7 kmh N 27.1 mph43.6 kmh 30.09 in1019.0 mb 0.00 in0.0 mm 0.00 in/hr0.0 mm/hr 0.00 in0.0 mm
01:39 PM 45.0°F7.2°C 37.3°F2.9°C 74% 11.0 mph N17.7 kmh N 27.1 mph43.6 kmh 30.09 in1019.0 mb 0.00 in0.0 mm 0.00 in/hr0.0 mm/hr 0.00 in0.0 mm
01:34 PM 45.0°F7.2°C 37.7°F3.2°C 75% 11.9 mph N19.2 kmh N 26.4 mph42.5 kmh 30.09 in1019.0 mb 0.00 in0.0 mm 0.00 in/hr0.0 mm/hr 0.00 in0.0 mm
01:29 PM 45.1°F7.3°C 37.8°F3.2°C 75% 15.0 mph N24.1 kmh N 23.9 mph38.5 kmh 30.09 in1019.0 mb 0.00 in0.0 mm 0.00 in/hr0.0 mm/hr 0.00 in0.0 mm
01:24 PM 45.0°F7.2°C 37.7°F3.2°C 75% 9.8 mph N15.8 kmh N 23.9 mph38.5 kmh 30.09 in1019.0 mb 0.00 in0.0 mm 0.00 in/hr0.0 mm/hr 0.00 in0.0 mm
01:19 PM 44.8°F7.1°C 37.5°F3.1°C 75% 9.4 mph N15.1 kmh N 23.9 mph38.5 kmh 30.09 in1019.0 mb 0.00 in0.0 mm 0.00 in/hr0.0 mm/hr 0.00 in0.0 mm
01:14 PM 44.8°F7.1°C 37.5°F3.1°C 75% 11.3 mph N18.2 kmh N 23.9 mph38.5 kmh 30.09 in1019.0 mb 0.00 in0.0 mm 0.00 in/hr0.0 mm/hr 0.00 in0.0 mm
01:08 PM 44.8°F7.1°C 37.1°F2.8°C 74% 13.4 mph NNW21.6 kmh NNW 23.9 mph38.5 kmh 30.09 in1019.0 mb 0.00 in0.0 mm 0.00 in/hr0.0 mm/hr 0.00 in0.0 mm
01:03 PM 44.8°F7.1°C 37.1°F2.8°C 74% 12.7 mph N20.4 kmh N 23.9 mph38.5 kmh 30.09 in1019.0 mb 0.00 in0.0 mm 0.00 in/hr0.0 mm/hr 0.00 in0.0 mm
12:58 PM 44.8°F7.1°C 37.5°F3.1°C 75% 15.3 mph N24.6 kmh N 23.9 mph38.5 kmh 30.09 in1019.0 mb 0.00 in0.0 mm 0.00 in/hr0.0 mm/hr 0.00 in0.0 mm
12:53 PM 45.0°F7.2°C 37.7°F3.2°C 75% 13.4 mph 21.6 kmh 23.4 mph37.7 kmh 30.09 in1019.0 mb 0.00 in0.0 mm 0.00 in/hr0.0 mm/hr 0.00 in0.0 mm
12:48 PM 45.1°F7.3°C 37.8°F3.2°C 75% 12.6 mph N20.3 kmh N 19.9 mph32.0 kmh 30.09 in1019.0 mb 0.00 in0.0 mm 0.00 in/hr0.0 mm/hr 0.00 in0.0 mm
12:43 PM 45.1°F7.3°C 37.8°F3.2°C 75% 11.6 mph N18.7 kmh N 25.2 mph40.6 kmh 30.09 in1019.0 mb 0.00 in0.0 mm 0.00 in/hr0.0 mm/hr 0.00 in0.0 mm
12:37 PM 45.1°F7.3°C 37.8°F3.2°C 75% 11.8 mph N19.0 kmh N 25.2 mph40.6 kmh 30.09 in1019.0 mb 0.00 in0.0 mm 0.00 in/hr0.0 mm/hr 0.00 in0.0 mm
12:32 PM 45.1°F7.3°C 38.2°F3.4°C 77% 13.2 mph N21.2 kmh N 23.9 mph38.5 kmh 30.09 in1019.0 mb 0.00 in0.0 mm 0.00 in/hr0.0 mm/hr 0.00 in0.0 mm
12:27 PM 45.3°F7.4°C 38.4°F3.6°C 77% 10.5 mph N16.9 kmh N 23.9 mph38.5 kmh 30.06 in1017.9 mb 0.00 in0.0 mm 0.00 in/hr0.0 mm/hr 0.00 in0.0 mm
12:22 PM 45.3°F7.4°C 38.4°F3.6°C 77% 16.5 mph N26.6 kmh N 23.9 mph38.5 kmh 30.06 in1017.9 mb 0.00 in0.0 mm 0.00 in/hr0.0 mm/hr 0.00 in0.0 mm
12:17 PM 45.5°F7.5°C 38.6°F3.7°C 77% 11.4 mph N18.3 kmh N 25.2 mph40.6 kmh 30.06 in1017.9 mb 0.00 in0.0 mm 0.00 in/hr0.0 mm/hr 0.00 in0.0 mm
12:12 PM 45.5°F7.5°C 38.6°F3.7°C 77% 14.5 mph N23.3 kmh N 25.2 mph40.6 kmh 30.06 in1017.9 mb 0.00 in0.0 mm 0.00 in/hr0.0 mm/hr 0.00 in0.0 mm
12:06 PM 45.7°F7.6°C 39.2°F4.0°C 78% 13.0 mph N20.9 kmh N 21.2 mph34.1 kmh 30.06 in1017.9 mb 0.00 in0.0 mm 0.00 in/hr0.0 mm/hr 0.00 in0.0 mm
12:01 PM 45.5°F7.5°C 39.0°F3.9°C 78% 12.4 mph N20.0 kmh N 22.4 mph36.0 kmh 30.06 in1017.9 mb 0.00 in0.0 mm 0.00 in/hr0.0 mm/hr 0.00 in0.0 mm
11:56 AM 45.7°F7.6°C 39.2°F4.0°C 78% 8.6 mph N13.8 kmh N 27.1 mph43.6 kmh 30.06 in1017.9 mb 0.00 in0.0 mm 0.00 in/hr0.0 mm/hr 0.00 in0.0 mm
11:51 AM 45.7°F7.6°C 39.2°F4.0°C 78% 11.4 mph N18.3 kmh N 27.1 mph43.6 kmh 30.06 in1017.9 mb 0.00 in0.0 mm 0.00 in/hr0.0 mm/hr 0.00 in0.0 mm
11:45 AM 45.9°F7.7°C 39.8°F4.3°C 79% 11.6 mph N18.7 kmh N 21.2 mph34.1 kmh 30.06 in1017.9 mb 0.00 in0.0 mm 0.00 in/hr0.0 mm/hr 0.00 in0.0 mm
11:40 AM 45.7°F7.6°C 39.6°F4.2°C 79% 10.9 mph N17.5 kmh N 21.2 mph34.1 kmh 30.06 in1017.9 mb 0.00 in0.0 mm 0.00 in/hr0.0 mm/hr 0.00 in0.0 mm
11:35 AM 45.7°F7.6°C 39.6°F4.2°C 79% 12.7 mph N20.4 kmh N 21.2 mph34.1 kmh 30.06 in1017.9 mb 0.00 in0.0 mm 0.00 in/hr0.0 mm/hr 0.00 in0.0 mm
11:30 AM 45.7°F7.6°C 39.9°F4.4°C 80% 9.4 mph N15.1 kmh N 20.6 mph33.2 kmh 30.06 in1017.9 mb 0.00 in0.0 mm 0.00 in/hr0.0 mm/hr 0.00 in0.0 mm
11:25 AM 45.7°F7.6°C 39.9°F4.4°C 80% 14.0 mph N22.5 kmh N 20.6 mph33.2 kmh 30.06 in1017.9 mb 0.00 in0.0 mm 0.00 in/hr0.0 mm/hr 0.00 in0.0 mm
11:20 AM 45.7°F7.6°C 39.9°F4.4°C 80% 11.8 mph 19.0 kmh 18.7 mph30.1 kmh 30.06 in1017.9 mb 0.00 in0.0 mm 0.00 in/hr0.0 mm/hr 0.00 in0.0 mm
11:15 AM 45.7°F7.6°C 40.3°F4.6°C 81% 10.5 mph NNW16.9 kmh NNW 18.7 mph30.1 kmh 30.06 in1017.9 mb 0.00 in0.0 mm 0.00 in/hr0.0 mm/hr 0.00 in0.0 mm
11:10 AM 45.5°F7.5°C 40.1°F4.5°C 81% 9.8 mph N15.8 kmh N 20.6 mph33.2 kmh 30.06 in1017.9 mb 0.00 in0.0 mm 0.00 in/hr0.0 mm/hr 0.00 in0.0 mm
11:04 AM 45.5°F7.5°C 40.1°F4.5°C 81% 9.5 mph N15.3 kmh N 18.1 mph29.1 kmh 30.06 in1017.9 mb 0.00 in0.0 mm 0.00 in/hr0.0 mm/hr 0.00 in0.0 mm
10:59 AM 45.3°F7.4°C 40.3°F4.6°C 82% 10.7 mph 17.2 kmh 23.4 mph37.7 kmh 30.06 in1017.9 mb 0.00 in0.0 mm 0.00 in/hr0.0 mm/hr 0.00 in0.0 mm
10:54 AM 45.3°F7.4°C 40.3°F4.6°C 82% 9.9 mph 15.9 kmh 23.9 mph38.5 kmh 30.06 in1017.9 mb 0.00 in0.0 mm 0.00 in/hr0.0 mm/hr 0.00 in0.0 mm
10:49 AM 45.3°F7.4°C 40.3°F4.6°C 82% 10.3 mph N16.6 kmh N 23.9 mph38.5 kmh 30.06 in1017.9 mb 0.00 in0.0 mm 0.00 in/hr0.0 mm/hr 0.00 in0.0 mm
10:44 AM 45.3°F7.4°C 40.3°F4.6°C 82% 11.0 mph N17.7 kmh N 21.2 mph34.1 kmh 30.03 in1016.9 mb 0.00 in0.0 mm 0.00 in/hr0.0 mm/hr 0.00 in0.0 mm
10:39 AM 45.3°F7.4°C 40.3°F4.6°C 82% 11.1 mph N17.9 kmh N 18.1 mph29.1 kmh 30.03 in1016.9 mb 0.00 in0.0 mm 0.00 in/hr0.0 mm/hr 0.00 in0.0 mm
10:34 AM 45.3°F7.4°C 40.3°F4.6°C 82% 10.7 mph N17.2 kmh N 23.4 mph37.7 kmh 30.03 in1016.9 mb 0.00 in0.0 mm 0.00 in/hr0.0 mm/hr 0.00 in0.0 mm
10:29 AM 45.3°F7.4°C 40.3°F4.6°C 82% 13.3 mph N21.4 kmh N 20.6 mph33.2 kmh 30.03 in1016.9 mb 0.00 in0.0 mm 0.00 in/hr0.0 mm/hr 0.00 in0.0 mm
10:23 AM 45.5°F7.5°C 40.8°F4.9°C 84% 8.4 mph N13.5 kmh N 27.1 mph43.6 kmh 30.03 in1016.9 mb 0.00 in0.0 mm 0.00 in/hr0.0 mm/hr 0.00 in0.0 mm
10:18 AM 45.5°F7.5°C 40.8°F4.9°C 84% 13.8 mph N22.2 kmh N 27.1 mph43.6 kmh 30.03 in1016.9 mb 0.00 in0.0 mm 0.00 in/hr0.0 mm/hr 0.00 in0.0 mm
10:12 AM 45.5°F7.5°C 41.2°F5.1°C 85% 4.5 mph NNW7.2 kmh NNW 21.2 mph34.1 kmh 30.03 in1016.9 mb 0.00 in0.0 mm 0.00 in/hr0.0 mm/hr 0.00 in0.0 mm
10:07 AM 45.5°F7.5°C 41.2°F5.1°C 85% 13.7 mph N22.0 kmh N 21.2 mph34.1 kmh 30.03 in1016.9 mb 0.00 in0.0 mm 0.00 in/hr0.0 mm/hr 0.00 in0.0 mm
10:02 AM 45.5°F7.5°C 41.5°F5.3°C 86% 9.6 mph N15.4 kmh N 18.7 mph30.1 kmh 30.03 in1016.9 mb 0.00 in0.0 mm 0.00 in/hr0.0 mm/hr 0.00 in0.0 mm
09:57 AM 45.5°F7.5°C 41.5°F5.3°C 86% 11.8 mph N19.0 kmh N 23.4 mph37.7 kmh 30.03 in1016.9 mb 0.00 in0.0 mm 0.00 in/hr0.0 mm/hr 0.00 in0.0 mm
09:51 AM 45.5°F7.5°C 41.8°F5.4°C 87% 9.5 mph N15.3 kmh N 23.9 mph38.5 kmh 30.03 in1016.9 mb 0.00 in0.0 mm 0.00 in/hr0.0 mm/hr 0.00 in0.0 mm
09:46 AM 45.5°F7.5°C 41.8°F5.4°C 87% 13.2 mph N21.2 kmh N 23.9 mph38.5 kmh 30.03 in1016.9 mb 0.00 in0.0 mm 0.00 in/hr0.0 mm/hr 0.00 in0.0 mm
09:41 AM 45.5°F7.5°C 42.2°F5.7°C 88% 12.7 mph N20.4 kmh N 23.1 mph37.2 kmh 30.03 in1016.9 mb 0.00 in0.0 mm 0.00 in/hr0.0 mm/hr 0.00 in0.0 mm
09:36 AM 45.5°F7.5°C 42.2°F5.7°C 88% 10.5 mph N16.9 kmh N 16.9 mph27.2 kmh 30.03 in1016.9 mb 0.00 in0.0 mm 0.00 in/hr0.0 mm/hr 0.00 in0.0 mm
09:31 AM 45.5°F7.5°C 42.2°F5.7°C 88% 8.7 mph N14.0 kmh N 16.4 mph26.4 kmh 30.03 in1016.9 mb 0.00 in0.0 mm 0.00 in/hr0.0 mm/hr 0.00 in0.0 mm
09:26 AM 45.5°F7.5°C 42.5°F5.8°C 89% 8.1 mph N13.0 kmh N 21.2 mph34.1 kmh 30.03 in1016.9 mb 0.00 in0.0 mm 0.00 in/hr0.0 mm/hr 0.00 in0.0 mm
09:21 AM 45.5°F7.5°C 42.5°F5.8°C 89% 9.5 mph N15.3 kmh N 21.2 mph34.1 kmh 30.03 in1016.9 mb 0.00 in0.0 mm 0.00 in/hr0.0 mm/hr 0.00 in0.0 mm
09:16 AM 45.5°F7.5°C 42.5°F5.8°C 89% 9.1 mph N14.6 kmh N 16.9 mph27.2 kmh 30.03 in1016.9 mb 0.00 in0.0 mm 0.00 in/hr0.0 mm/hr 0.00 in0.0 mm
09:11 AM 45.5°F7.5°C 42.5°F5.8°C 89% 8.5 mph N13.7 kmh N 20.6 mph33.2 kmh 30.00 in1015.9 mb 0.00 in0.0 mm 0.00 in/hr0.0 mm/hr 0.00 in0.0 mm
09:06 AM 45.5°F7.5°C 42.5°F5.8°C 89% 8.4 mph N13.5 kmh N 20.6 mph33.2 kmh 30.00 in1015.9 mb 0.00 in0.0 mm 0.00 in/hr0.0 mm/hr 0.00 in0.0 mm
09:01 AM 45.5°F7.5°C 42.8°F6.0°C 90% 8.0 mph N12.9 kmh N 15.7 mph25.3 kmh 30.00 in1015.9 mb 0.00 in0.0 mm 0.00 in/hr0.0 mm/hr 0.00 in0.0 mm
08:56 AM 45.5°F7.5°C 42.8°F6.0°C 90% 8.8 mph N14.2 kmh N 15.1 mph24.3 kmh 30.00 in1015.9 mb 0.00 in0.0 mm 0.00 in/hr0.0 mm/hr 0.00 in0.0 mm
08:51 AM 45.7°F7.6°C 43.0°F6.1°C 90% 8.1 mph N13.0 kmh N 15.1 mph24.3 kmh 30.00 in1015.9 mb 0.00 in0.0 mm 0.00 in/hr0.0 mm/hr 0.00 in0.0 mm
08:46 AM 45.7°F7.6°C 43.0°F6.1°C 90% 6.1 mph N9.8 kmh N 14.4 mph23.2 kmh 30.00 in1015.9 mb 0.00 in0.0 mm 0.00 in/hr0.0 mm/hr 0.00 in0.0 mm
08:41 AM 45.7°F7.6°C 43.0°F6.1°C 90% 9.4 mph N15.1 kmh N 14.4 mph23.2 kmh 30.00 in1015.9 mb 0.00 in0.0 mm 0.00 in/hr0.0 mm/hr 0.00 in0.0 mm
08:36 AM 45.7°F7.6°C 43.0°F6.1°C 90% 7.7 mph NNW12.4 kmh NNW 14.4 mph23.2 kmh 30.00 in1015.9 mb 0.00 in0.0 mm 0.00 in/hr0.0 mm/hr 0.00 in0.0 mm
08:31 AM 45.9°F7.7°C 43.2°F6.2°C 90% 7.1 mph N11.4 kmh N 15.1 mph24.3 kmh 30.00 in1015.9 mb 0.00 in0.0 mm 0.00 in/hr0.0 mm/hr 0.00 in0.0 mm
08:26 AM 45.9°F7.7°C 43.2°F6.2°C 90% 7.9 mph NNW12.7 kmh NNW 15.1 mph24.3 kmh 30.00 in1015.9 mb 0.00 in0.0 mm 0.00 in/hr0.0 mm/hr 0.00 in0.0 mm
08:21 AM 45.9°F7.7°C 43.2°F6.2°C 90% 6.5 mph NNW10.5 kmh NNW 15.1 mph24.3 kmh 30.00 in1015.9 mb 0.00 in0.0 mm 0.00 in/hr0.0 mm/hr 0.00 in0.0 mm
08:16 AM 45.9°F7.7°C 43.2°F6.2°C 90% 7.2 mph N11.6 kmh N 14.4 mph23.2 kmh 30.00 in1015.9 mb 0.00 in0.0 mm 0.00 in/hr0.0 mm/hr 0.00 in0.0 mm
08:11 AM 45.9°F7.7°C 43.2°F6.2°C 90% 7.6 mph N12.2 kmh N 15.1 mph24.3 kmh 29.97 in1014.9 mb 0.00 in0.0 mm 0.00 in/hr0.0 mm/hr 0.00 in0.0 mm
08:06 AM 46.0°F7.8°C 43.3°F6.3°C 90% 8.4 mph N13.5 kmh N 15.1 mph24.3 kmh 29.97 in1014.9 mb 0.00 in0.0 mm 0.00 in/hr0.0 mm/hr 0.00 in0.0 mm
08:01 AM 46.0°F7.8°C 43.2°F6.2°C 90% 6.4 mph N10.3 kmh N 15.1 mph24.3 kmh 29.97 in1014.9 mb 0.00 in0.0 mm 0.00 in/hr0.0 mm/hr 0.00 in0.0 mm
07:56 AM 46.0°F7.8°C 43.2°F6.2°C 90% 5.4 mph NNW8.7 kmh NNW 11.4 mph18.3 kmh 29.97 in1014.9 mb 0.00 in0.0 mm 0.00 in/hr0.0 mm/hr 0.00 in0.0 mm
07:50 AM 46.0°F7.8°C 43.2°F6.2°C 90% 5.9 mph NNW9.5 kmh NNW 11.4 mph18.3 kmh 29.97 in1014.9 mb 0.00 in0.0 mm 0.00 in/hr0.0 mm/hr 0.00 in0.0 mm
07:45 AM 46.0°F7.8°C 43.2°F6.2°C 90% 5.5 mph NW8.9 kmh NW 11.1 mph17.9 kmh 29.97 in1014.9 mb 0.00 in0.0 mm 0.00 in/hr0.0 mm/hr 0.00 in0.0 mm
07:40 AM 46.0°F7.8°C 43.2°F6.2°C 90% 6.2 mph N10.0 kmh N 12.0 mph19.3 kmh 29.97 in1014.9 mb 0.00 in0.0 mm 0.00 in/hr0.0 mm/hr 0.00 in0.0 mm
07:35 AM 46.0°F7.8°C 43.2°F6.2°C 90% 3.3 mph N5.3 kmh N 12.0 mph19.3 kmh 29.97 in1014.9 mb 0.00 in0.0 mm 0.00 in/hr0.0 mm/hr 0.00 in0.0 mm
07:30 AM 46.2°F7.9°C 43.4°F6.3°C 90% 4.6 mph N7.4 kmh N 15.1 mph24.3 kmh 29.97 in1014.9 mb 0.00 in0.0 mm 0.00 in/hr0.0 mm/hr 0.00 in0.0 mm
07:25 AM 46.2°F7.9°C 43.4°F6.3°C 90% 7.6 mph 12.2 kmh 15.1 mph24.3 kmh 29.97 in1014.9 mb 0.00 in0.0 mm 0.00 in/hr0.0 mm/hr 0.00 in0.0 mm
07:20 AM 46.2°F7.9°C 43.4°F6.3°C 90% 6.3 mph N10.1 kmh N 16.9 mph27.2 kmh 29.97 in1014.9 mb 0.00 in0.0 mm 0.00 in/hr0.0 mm/hr 0.00 in0.0 mm
07:15 AM 46.2°F7.9°C 43.4°F6.3°C 90% 9.5 mph N15.3 kmh N 16.9 mph27.2 kmh 29.97 in1014.9 mb 0.00 in0.0 mm 0.00 in/hr0.0 mm/hr 0.00 in0.0 mm
07:10 AM 46.2°F7.9°C 43.4°F6.3°C 90% 9.9 mph N15.9 kmh N 21.2 mph34.1 kmh 29.97 in1014.9 mb 0.00 in0.0 mm 0.00 in/hr0.0 mm/hr 0.00 in0.0 mm
07:05 AM 46.2°F7.9°C 43.4°F6.3°C 90% 10.3 mph N16.6 kmh N 21.2 mph34.1 kmh 29.97 in1014.9 mb 0.00 in0.0 mm 0.00 in/hr0.0 mm/hr 0.00 in0.0 mm
07:00 AM 46.2°F7.9°C 43.4°F6.3°C 90% 11.0 mph 17.7 kmh 20.6 mph33.2 kmh 29.97 in1014.9 mb 0.00 in0.0 mm 0.00 in/hr0.0 mm/hr 0.00 in0.0 mm
06:55 AM 46.4°F8.0°C 43.6°F6.4°C 90% 10.2 mph N16.4 kmh N 20.6 mph33.2 kmh 29.94 in1013.9 mb 0.00 in0.0 mm 0.00 in/hr0.0 mm/hr 0.00 in0.0 mm
06:50 AM 46.4°F8.0°C 43.6°F6.4°C 90% 6.4 mph N10.3 kmh N 20.6 mph33.2 kmh 29.94 in1013.9 mb 0.00 in0.0 mm 0.00 in/hr0.0 mm/hr 0.00 in0.0 mm
06:45 AM 46.4°F8.0°C 43.5°F6.4°C 90% 12.1 mph N19.5 kmh N 20.6 mph33.2 kmh 29.94 in1013.9 mb 0.00 in0.0 mm 0.00 in/hr0.0 mm/hr 0.00 in0.0 mm
06:39 AM 46.4°F8.0°C 43.2°F6.2°C 89% 10.8 mph N17.4 kmh N 19.4 mph31.2 kmh 29.94 in1013.9 mb 0.00 in0.0 mm 0.00 in/hr0.0 mm/hr 0.00 in0.0 mm
06:34 AM 46.6°F8.1°C 43.4°F6.3°C 89% 7.8 mph N12.6 kmh N 14.4 mph23.2 kmh 29.94 in1013.9 mb 0.00 in0.0 mm 0.00 in/hr0.0 mm/hr 0.00 in0.0 mm
06:28 AM 46.6°F8.1°C 43.4°F6.3°C 89% 7.3 mph N11.7 kmh N 14.4 mph23.2 kmh 29.94 in1013.9 mb 0.00 in0.0 mm 0.00 in/hr0.0 mm/hr 0.00 in0.0 mm
06:23 AM 46.6°F8.1°C 43.4°F6.3°C 89% 8.6 mph N13.8 kmh N 14.4 mph23.2 kmh 29.94 in1013.9 mb 0.00 in0.0 mm 0.00 in/hr0.0 mm/hr 0.00 in0.0 mm
06:18 AM 46.6°F8.1°C 43.4°F6.3°C 89% 6.3 mph 10.1 kmh 14.4 mph23.2 kmh 29.94 in1013.9 mb 0.00 in0.0 mm 0.00 in/hr0.0 mm/hr 0.00 in0.0 mm
06:13 AM 46.6°F8.1°C 43.4°F6.3°C 89% 7.6 mph N12.2 kmh N 13.9 mph22.4 kmh 29.94 in1013.9 mb 0.00 in0.0 mm 0.00 in/hr0.0 mm/hr 0.00 in0.0 mm
06:08 AM 46.8°F8.2°C 43.5°F6.4°C 89% 7.2 mph N11.6 kmh N 13.9 mph22.4 kmh 29.94 in1013.9 mb 0.00 in0.0 mm 0.00 in/hr0.0 mm/hr 0.00 in0.0 mm
06:03 AM 46.8°F8.2°C 43.5°F6.4°C 89% 6.1 mph N9.8 kmh N 9.2 mph14.8 kmh 29.94 in1013.9 mb 0.00 in0.0 mm 0.00 in/hr0.0 mm/hr 0.00 in0.0 mm
05:58 AM 46.8°F8.2°C 43.5°F6.4°C 88% 5.0 mph N8.0 kmh N 9.2 mph14.8 kmh 29.91 in1012.9 mb 0.00 in0.0 mm 0.00 in/hr0.0 mm/hr 0.00 in0.0 mm
05:53 AM 46.8°F8.2°C 43.5°F6.4°C 88% 4.6 mph NNW7.4 kmh NNW 8.7 mph14.0 kmh 29.91 in1012.9 mb 0.00 in0.0 mm 0.00 in/hr0.0 mm/hr 0.00 in0.0 mm
05:48 AM 46.8°F8.2°C 43.5°F6.4°C 88% 5.2 mph NNW8.4 kmh NNW 10.4 mph16.7 kmh 29.91 in1012.9 mb 0.00 in0.0 mm 0.00 in/hr0.0 mm/hr 0.00 in0.0 mm
05:43 AM 46.8°F8.2°C 43.2°F6.2°C 87% 6.6 mph N10.6 kmh N 10.4 mph16.7 kmh 29.91 in1012.9 mb 0.00 in0.0 mm 0.00 in/hr0.0 mm/hr 0.00 in0.0 mm
05:38 AM 46.8°F8.2°C 43.2°F6.2°C 87% 6.5 mph N10.5 kmh N 11.4 mph18.3 kmh 29.91 in1012.9 mb 0.00 in0.0 mm 0.00 in/hr0.0 mm/hr 0.00 in0.0 mm
05:33 AM 46.8°F8.2°C 43.1°F6.2°C 87% 6.3 mph NNW10.1 kmh NNW 11.4 mph18.3 kmh 29.91 in1012.9 mb 0.00 in0.0 mm 0.00 in/hr0.0 mm/hr 0.00 in0.0 mm
05:28 AM 46.8°F8.2°C 43.1°F6.2°C 87% 4.5 mph NNW7.2 kmh NNW 8.7 mph14.0 kmh 29.91 in1012.9 mb 0.00 in0.0 mm 0.00 in/hr0.0 mm/hr 0.00 in0.0 mm
05:23 AM 46.8°F8.2°C 43.1°F6.2°C 87% 4.5 mph NW7.2 kmh NW 9.9 mph15.9 kmh 29.91 in1012.9 mb 0.00 in0.0 mm 0.00 in/hr0.0 mm/hr 0.00 in0.0 mm
05:17 AM 46.8°F8.2°C 43.1°F6.2°C 87% 5.5 mph NNW8.9 kmh NNW 9.9 mph15.9 kmh 29.91 in1012.9 mb 0.00 in0.0 mm 0.00 in/hr0.0 mm/hr 0.00 in0.0 mm
05:12 AM 46.8°F8.2°C 43.1°F6.2°C 87% 3.7 mph NNW6.0 kmh NNW 8.7 mph14.0 kmh 29.91 in1012.9 mb 0.00 in0.0 mm 0.00 in/hr0.0 mm/hr 0.00 in0.0 mm
05:07 AM 46.8°F8.2°C 42.8°F6.0°C 86% 3.0 mph NW4.8 kmh NW 8.0 mph12.9 kmh 29.91 in1012.9 mb 0.00 in0.0 mm 0.00 in/hr0.0 mm/hr 0.00 in0.0 mm
05:02 AM 46.8°F8.2°C 42.8°F6.0°C 86% 4.4 mph NNW7.1 kmh NNW 8.7 mph14.0 kmh 29.91 in1012.9 mb 0.00 in0.0 mm 0.00 in/hr0.0 mm/hr 0.00 in0.0 mm
04:57 AM 46.8°F8.2°C 42.7°F5.9°C 86% 4.1 mph NW6.6 kmh NW 8.7 mph14.0 kmh 29.91 in1012.9 mb 0.00 in0.0 mm 0.00 in/hr0.0 mm/hr 0.00 in0.0 mm
04:52 AM 46.8°F8.2°C 42.8°F6.0°C 86% 4.6 mph NW7.4 kmh NW 8.7 mph14.0 kmh 29.91 in1012.9 mb 0.00 in0.0 mm 0.00 in/hr0.0 mm/hr 0.00 in0.0 mm
04:47 AM 46.8°F8.2°C 42.8°F6.0°C 86% 3.8 mph NW6.1 kmh NW 10.4 mph16.7 kmh 29.91 in1012.9 mb 0.00 in0.0 mm 0.00 in/hr0.0 mm/hr 0.00 in0.0 mm
04:42 AM 46.8°F8.2°C 42.4°F5.8°C 85% 4.9 mph NW7.9 kmh NW 10.4 mph16.7 kmh 29.91 in1012.9 mb 0.00 in0.0 mm 0.00 in/hr0.0 mm/hr 0.00 in0.0 mm
04:37 AM 46.9°F8.3°C 42.5°F5.8°C 85% 3.7 mph NW6.0 kmh NW 8.7 mph14.0 kmh 29.91 in1012.9 mb 0.00 in0.0 mm 0.00 in/hr0.0 mm/hr 0.00 in0.0 mm
04:32 AM 46.9°F8.3°C 42.5°F5.8°C 85% 3.6 mph NW5.8 kmh NW 9.2 mph14.8 kmh 29.91 in1012.9 mb 0.00 in0.0 mm 0.00 in/hr0.0 mm/hr 0.00 in0.0 mm
04:27 AM 46.9°F8.3°C 42.5°F5.8°C 85% 3.8 mph WNW6.1 kmh WNW 9.2 mph14.8 kmh 29.91 in1012.9 mb 0.00 in0.0 mm 0.00 in/hr0.0 mm/hr 0.00 in0.0 mm
04:22 AM 46.9°F8.3°C 42.5°F5.8°C 85% 5.1 mph NW8.2 kmh NW 9.2 mph14.8 kmh 29.91 in1012.9 mb 0.00 in0.0 mm 0.00 in/hr0.0 mm/hr 0.00 in0.0 mm
04:17 AM 47.1°F8.4°C 42.4°F5.8°C 84% 4.7 mph NW7.6 kmh NW 10.4 mph16.7 kmh 29.91 in1012.9 mb 0.00 in0.0 mm 0.00 in/hr0.0 mm/hr 0.00 in0.0 mm
04:12 AM 47.1°F8.4°C 42.4°F5.8°C 84% 4.4 mph NW7.1 kmh NW 11.1 mph17.9 kmh 29.91 in1012.9 mb 0.00 in0.0 mm 0.00 in/hr0.0 mm/hr 0.00 in0.0 mm
04:06 AM 47.3°F8.5°C 42.6°F5.9°C 84% 5.0 mph NW8.0 kmh NW 11.1 mph17.9 kmh 29.91 in1012.9 mb 0.00 in0.0 mm 0.00 in/hr0.0 mm/hr 0.00 in0.0 mm
04:01 AM 47.3°F8.5°C 42.6°F5.9°C 84% 5.3 mph NW8.5 kmh NW 11.1 mph17.9 kmh 29.91 in1012.9 mb 0.00 in0.0 mm 0.00 in/hr0.0 mm/hr 0.00 in0.0 mm
03:56 AM 47.5°F8.6°C 42.8°F6.0°C 84% 5.4 mph NW8.7 kmh NW 11.4 mph18.3 kmh 29.91 in1012.9 mb 0.00 in0.0 mm 0.00 in/hr0.0 mm/hr 0.00 in0.0 mm
03:51 AM 47.7°F8.7°C 43.0°F6.1°C 84% 5.6 mph NW9.0 kmh NW 11.4 mph18.3 kmh 29.91 in1012.9 mb 0.00 in0.0 mm 0.00 in/hr0.0 mm/hr 0.00 in0.0 mm
03:46 AM 47.7°F8.7°C 42.7°F5.9°C 83% 5.4 mph NNW8.7 kmh NNW 11.4 mph18.3 kmh 29.91 in1012.9 mb 0.00 in0.0 mm 0.00 in/hr0.0 mm/hr 0.00 in0.0 mm
03:41 AM 47.8°F8.8°C 42.8°F6.0°C 83% 4.2 mph NW6.8 kmh NW 10.4 mph16.7 kmh 29.91 in1012.9 mb 0.00 in0.0 mm 0.00 in/hr0.0 mm/hr 0.00 in0.0 mm
03:36 AM 47.8°F8.8°C 42.8°F6.0°C 83% 5.3 mph NW8.5 kmh NW 10.4 mph16.7 kmh 29.91 in1012.9 mb 0.00 in0.0 mm 0.00 in/hr0.0 mm/hr 0.00 in0.0 mm
03:31 AM 47.8°F8.8°C 42.8°F6.0°C 83% 4.3 mph NW6.9 kmh NW 8.7 mph14.0 kmh 29.91 in1012.9 mb 0.00 in0.0 mm 0.00 in/hr0.0 mm/hr 0.00 in0.0 mm
03:26 AM 47.8°F8.8°C 42.8°F6.0°C 83% 4.3 mph NW6.9 kmh NW 8.7 mph14.0 kmh 29.88 in1011.9 mb 0.00 in0.0 mm 0.00 in/hr0.0 mm/hr 0.00 in0.0 mm
03:21 AM 47.8°F8.8°C 42.8°F6.0°C 83% 4.4 mph NNW7.1 kmh NNW 8.0 mph12.9 kmh 29.88 in1011.9 mb 0.00 in0.0 mm 0.00 in/hr0.0 mm/hr 0.00 in0.0 mm
03:16 AM 47.8°F8.8°C 42.8°F6.0°C 83% 4.6 mph NNW7.4 kmh NNW 10.4 mph16.7 kmh 29.88 in1011.9 mb 0.00 in0.0 mm 0.00 in/hr0.0 mm/hr 0.00 in0.0 mm
03:11 AM 47.8°F8.8°C 42.8°F6.0°C 83% 6.5 mph NW10.5 kmh NW 10.4 mph16.7 kmh 29.88 in1011.9 mb 0.00 in0.0 mm 0.00 in/hr0.0 mm/hr 0.00 in0.0 mm
03:06 AM 47.8°F8.8°C 42.8°F6.0°C 83% 4.8 mph NW7.7 kmh NW 13.2 mph21.2 kmh 29.88 in1011.9 mb 0.00 in0.0 mm 0.00 in/hr0.0 mm/hr 0.00 in0.0 mm
03:01 AM 47.8°F8.8°C 42.8°F6.0°C 83% 7.1 mph NW11.4 kmh NW 13.2 mph21.2 kmh 29.88 in1011.9 mb 0.00 in0.0 mm 0.00 in/hr0.0 mm/hr 0.00 in0.0 mm
02:56 AM 47.8°F8.8°C 42.8°F6.0°C 83% 6.6 mph NNW10.6 kmh NNW 12.0 mph19.3 kmh 29.88 in1011.9 mb 0.00 in0.0 mm 0.00 in/hr0.0 mm/hr 0.00 in0.0 mm
02:51 AM 48.0°F8.9°C 43.0°F6.1°C 83% 4.9 mph NW7.9 kmh NW 10.4 mph16.7 kmh 29.88 in1011.9 mb 0.00 in0.0 mm 0.00 in/hr0.0 mm/hr 0.00 in0.0 mm
02:45 AM 48.0°F8.9°C 43.0°F6.1°C 83% 6.7 mph NW10.8 kmh NW 10.4 mph16.7 kmh 29.88 in1011.9 mb 0.00 in0.0 mm 0.00 in/hr0.0 mm/hr 0.00 in0.0 mm
02:40 AM 48.0°F8.9°C 43.1°F6.2°C 83% 3.6 mph NW5.8 kmh NW 9.9 mph15.9 kmh 29.88 in1011.9 mb 0.00 in0.0 mm 0.00 in/hr0.0 mm/hr 0.00 in0.0 mm
02:35 AM 48.0°F8.9°C 43.1°F6.2°C 83% 5.0 mph NW8.0 kmh NW 12.0 mph19.3 kmh 29.88 in1011.9 mb 0.00 in0.0 mm 0.00 in/hr0.0 mm/hr 0.00 in0.0 mm
02:30 AM 48.0°F8.9°C 43.1°F6.2°C 83% 7.7 mph NW12.4 kmh NW 12.0 mph19.3 kmh 29.88 in1011.9 mb 0.00 in0.0 mm 0.00 in/hr0.0 mm/hr 0.00 in0.0 mm
02:24 AM 48.0°F8.9°C 43.1°F6.2°C 83% 6.0 mph NW9.7 kmh NW 8.7 mph14.0 kmh 29.88 in1011.9 mb 0.00 in0.0 mm 0.00 in/hr0.0 mm/hr 0.00 in0.0 mm
02:19 AM 48.0°F8.9°C 43.1°F6.2°C 83% 5.4 mph WNW8.7 kmh WNW 8.7 mph14.0 kmh 29.88 in1011.9 mb 0.00 in0.0 mm 0.00 in/hr0.0 mm/hr 0.00 in0.0 mm
02:13 AM 48.0°F8.9°C 43.1°F6.2°C 83% 4.9 mph NW7.9 kmh NW 8.7 mph14.0 kmh 29.88 in1011.9 mb 0.00 in0.0 mm 0.00 in/hr0.0 mm/hr 0.00 in0.0 mm
02:08 AM 48.0°F8.9°C 43.1°F6.2°C 83% 4.1 mph NW6.6 kmh NW 11.1 mph17.9 kmh 29.88 in1011.9 mb 0.00 in0.0 mm 0.00 in/hr0.0 mm/hr 0.00 in0.0 mm
02:03 AM 48.0°F8.9°C 43.1°F6.2°C 83% 6.8 mph NW10.9 kmh NW 11.1 mph17.9 kmh 29.88 in1011.9 mb 0.00 in0.0 mm 0.00 in/hr0.0 mm/hr 0.00 in0.0 mm
01:58 AM 48.2°F9.0°C 43.3°F6.3°C 83% 6.0 mph NW9.7 kmh NW 10.4 mph16.7 kmh 29.88 in1011.9 mb 0.00 in0.0 mm 0.00 in/hr0.0 mm/hr 0.00 in0.0 mm
01:53 AM 48.2°F9.0°C 43.3°F6.3°C 83% 5.4 mph NW8.7 kmh NW 11.4 mph18.3 kmh 29.88 in1011.9 mb 0.00 in0.0 mm 0.00 in/hr0.0 mm/hr 0.00 in0.0 mm
01:48 AM 48.2°F9.0°C 43.3°F6.3°C 83% 4.8 mph NW7.7 kmh NW 13.2 mph21.2 kmh 29.88 in1011.9 mb 0.00 in0.0 mm 0.00 in/hr0.0 mm/hr 0.00 in0.0 mm
01:42 AM 48.2°F9.0°C 43.3°F6.3°C 83% 6.4 mph NW10.3 kmh NW 14.4 mph23.2 kmh 29.88 in1011.9 mb 0.00 in0.0 mm 0.00 in/hr0.0 mm/hr 0.00 in0.0 mm
01:37 AM 48.2°F9.0°C 43.3°F6.3°C 83% 6.0 mph NW9.7 kmh NW 14.4 mph23.2 kmh 29.88 in1011.9 mb 0.00 in0.0 mm 0.00 in/hr0.0 mm/hr 0.00 in0.0 mm
01:32 AM 48.2°F9.0°C 43.3°F6.3°C 83% 7.0 mph NW11.3 kmh NW 11.4 mph18.3 kmh 29.88 in1011.9 mb 0.00 in0.0 mm 0.00 in/hr0.0 mm/hr 0.00 in0.0 mm
01:27 AM 48.2°F9.0°C 43.3°F6.3°C 83% 4.9 mph NNW7.9 kmh NNW 11.4 mph18.3 kmh 29.88 in1011.9 mb 0.00 in0.0 mm 0.00 in/hr0.0 mm/hr 0.00 in0.0 mm
01:22 AM 48.2°F9.0°C 43.3°F6.3°C 83% 6.9 mph NW11.1 kmh NW 11.4 mph18.3 kmh 29.88 in1011.9 mb 0.00 in0.0 mm 0.00 in/hr0.0 mm/hr 0.00 in0.0 mm
01:17 AM 48.2°F9.0°C 43.3°F6.3°C 83% 5.0 mph NW8.0 kmh NW 10.4 mph16.7 kmh 29.88 in1011.9 mb 0.00 in0.0 mm 0.00 in/hr0.0 mm/hr 0.00 in0.0 mm
01:12 AM 48.2°F9.0°C 43.3°F6.3°C 83% 5.0 mph NW8.0 kmh NW 11.1 mph17.9 kmh 29.88 in1011.9 mb 0.00 in0.0 mm 0.00 in/hr0.0 mm/hr 0.00 in0.0 mm
01:07 AM 48.2°F9.0°C 43.3°F6.3°C 83% 6.0 mph NW9.7 kmh NW 11.1 mph17.9 kmh 29.88 in1011.9 mb 0.00 in0.0 mm 0.00 in/hr0.0 mm/hr 0.00 in0.0 mm
01:02 AM 48.4°F9.1°C 43.5°F6.4°C 83% 3.4 mph NW5.5 kmh NW 10.4 mph16.7 kmh 29.88 in1011.9 mb 0.00 in0.0 mm 0.00 in/hr0.0 mm/hr 0.00 in0.0 mm
12:57 AM 48.4°F9.1°C 43.5°F6.4°C 83% 5.4 mph NW8.7 kmh NW 12.0 mph19.3 kmh 29.88 in1011.9 mb 0.00 in0.0 mm 0.00 in/hr0.0 mm/hr 0.00 in0.0 mm
12:52 AM 48.4°F9.1°C 43.5°F6.4°C 83% 8.6 mph NW13.8 kmh NW 12.0 mph19.3 kmh 29.88 in1011.9 mb 0.00 in0.0 mm 0.00 in/hr0.0 mm/hr 0.00 in0.0 mm
12:47 AM 48.6°F9.2°C 43.7°F6.5°C 83% 5.0 mph NW8.0 kmh NW 10.4 mph16.7 kmh 29.88 in1011.9 mb 0.00 in0.0 mm 0.00 in/hr0.0 mm/hr 0.00 in0.0 mm
12:42 AM 48.6°F9.2°C 43.7°F6.5°C 83% 6.6 mph NW10.6 kmh NW 10.4 mph16.7 kmh 29.88 in1011.9 mb 0.00 in0.0 mm 0.00 in/hr0.0 mm/hr 0.00 in0.0 mm
12:37 AM 48.6°F9.2°C 43.7°F6.5°C 83% 4.3 mph NW6.9 kmh NW 11.1 mph17.9 kmh 29.88 in1011.9 mb 0.00 in0.0 mm 0.00 in/hr0.0 mm/hr 0.00 in0.0 mm
12:31 AM 48.6°F9.2°C 43.7°F6.5°C 83% 5.6 mph NW9.0 kmh NW 11.4 mph18.3 kmh 29.88 in1011.9 mb 0.00 in0.0 mm 0.00 in/hr0.0 mm/hr 0.00 in0.0 mm
12:26 AM 48.6°F9.2°C 43.7°F6.5°C 83% 4.8 mph NW7.7 kmh NW 11.1 mph17.9 kmh 29.88 in1011.9 mb 0.00 in0.0 mm 0.00 in/hr0.0 mm/hr 0.00 in0.0 mm
12:19 AM 48.7°F9.3°C 43.8°F6.6°C 83% 6.8 mph NW10.9 kmh NW 11.4 mph18.3 kmh 29.88 in1011.9 mb 0.00 in0.0 mm 0.00 in/hr0.0 mm/hr 0.00 in0.0 mm
12:14 AM 48.7°F9.3°C 43.8°F6.6°C 83% 4.9 mph WNW7.9 kmh WNW 12.0 mph19.3 kmh 29.88 in1011.9 mb 0.00 in0.0 mm 0.00 in/hr0.0 mm/hr 0.00 in0.0 mm
12:09 AM 48.7°F9.3°C 43.5°F6.4°C 82% 5.3 mph NW8.5 kmh NW 12.0 mph19.3 kmh 29.88 in1011.9 mb 0.00 in0.0 mm 0.00 in/hr0.0 mm/hr 0.00 in0.0 mm
12:04 AM 48.7°F9.3°C 43.5°F6.4°C 82% 3.9 mph NW6.3 kmh NW 8.7 mph14.0 kmh 29.88 in1011.9 mb 0.00 in0.0 mm 0.00 in/hr0.0 mm/hr 0.00 in0.0 mm